Time;durP1;ratioP1;P1;durP2;ratioP2;P2;SDS_P1;SDS_P2;PMS_P1;PMS_P2;Temp;Humidity;BMP_temperature;BMP_pressure;BME280_temperature;BME280_humidity;BME280_pressure;Samples;Min_cycle;Max_cycle;Signal;HPM_P1;HPM_P2
2021/04/23 00:00:47;;;;;;;8.25;2.63;;;;;;;;;;5075312;28;20048;-69
2021/04/23 00:03:24;;;;;;;6.85;2.90;;;;;;;;;;5075498;28;20047;-69
2021/04/23 00:05:52;;;;;;;10.25;3.72;;;;;;;;;;5075654;28;20052;-69
2021/04/23 00:08:19;;;;;;;9.15;3.50;;;;;;;;;;5075435;28;20052;-69
2021/04/23 00:10:48;;;;;;;6.63;3.25;;;;;;;;;;5075804;28;20052;-69
2021/04/23 00:13:15;;;;;;;7.63;2.83;;;;;;;;;;5075644;28;20047;-69
2021/04/23 00:15:41;;;;;;;6.25;3.13;;;;;;;;;;5075396;28;20044;-69
2021/04/23 00:18:07;;;;;;;5.53;2.40;;;;;;;;;;5074690;28;20045;-69
2021/04/23 00:20:35;;;;;;;7.20;2.42;;;;;;;;;;5074845;28;20052;-69
2021/04/23 00:23:02;;;;;;;9.15;2.58;;;;;;;;;;5074767;28;20056;-69
2021/04/23 00:25:29;;;;;;;7.57;2.80;;;;;;;;;;5074469;28;20064;-69
2021/04/23 00:27:57;;;;;;;6.43;2.60;;;;;;;;;;5074209;28;20474;-69
2021/04/23 00:30:24;;;;;;;7.82;2.70;;;;;;;;;;5074722;28;20048;-69
2021/04/23 00:32:53;;;;;;;8.88;3.00;;;;;;;;;;5074736;28;20648;-69
2021/04/23 00:35:21;;;;;;;5.57;2.65;;;;;;;;;;5073975;28;20139;-68
2021/04/23 00:37:47;;;;;;;8.88;2.20;;;;;;;;;;5074442;28;20040;-68
2021/04/23 00:40:17;;;;;;;9.93;4.30;;;;;;;;;;5073882;28;20073;-68
2021/04/23 00:42:43;;;;;;;8.38;2.80;;;;;;;;;;5077250;28;20040;-68
2021/04/23 00:45:12;;;;;;;7.55;3.35;;;;;;;;;;5083378;28;20044;-68
2021/04/23 00:47:38;;;;;;;8.23;2.80;;;;;;;;;;5074784;28;20067;-68
2021/04/23 00:50:05;;;;;;;5.07;2.63;;;;;;;;;;5073579;28;20097;-68
2021/04/23 00:52:32;;;;;;;8.60;2.95;;;;;;;;;;5067796;28;20053;-68
2021/04/23 00:54:58;;;;;;;10.95;4.32;;;;;;;;;;5074318;28;20045;-68
2021/04/23 00:57:24;;;;;;;6.30;2.95;;;;;;;;;;5074348;28;20048;-68
2021/04/23 00:59:50;;;;;;;5.60;2.63;;;;;;;;;;5074496;28;20056;-68
2021/04/23 01:02:16;;;;;;;6.75;3.30;;;;;;;;;;5074332;28;20094;-68
2021/04/23 01:04:42;;;;;;;7.70;2.30;;;;;;;;;;5073469;28;20048;-68
2021/04/23 01:07:09;;;;;;;7.35;2.75;;;;;;;;;;5073095;28;20078;-68
2021/04/23 01:09:35;;;;;;;6.05;3.10;;;;;;;;;;5073308;28;20160;-68
2021/04/23 01:12:04;;;;;;;6.70;2.75;;;;;;;;;;5073897;28;20055;-68
2021/04/23 01:14:31;;;;;;;10.27;3.28;;;;;;;;;;5073678;28;20045;-68
2021/04/23 01:16:57;;;;;;;8.10;3.75;;;;;;;;;;5073180;28;20628;-68
2021/04/23 01:19:25;;;;;;;9.15;2.90;;;;;;;;;;5072661;28;20473;-68
2021/04/23 01:21:52;;;;;;;5.93;2.63;;;;;;;;;;5073114;28;20053;-68
2021/04/23 01:24:19;;;;;;;6.22;2.85;;;;;;;;;;5072876;28;20066;-68
2021/04/23 01:26:47;;;;;;;7.55;3.03;;;;;;;;;;5072975;28;20668;-68
2021/04/23 01:29:14;;;;;;;6.93;2.42;;;;;;;;;;5073266;28;20684;-68
2021/04/23 01:31:43;;;;;;;9.27;2.78;;;;;;;;;;5073499;28;20056;-68
2021/04/23 01:34:13;;;;;;;8.23;3.05;;;;;;;;;;5065337;28;20049;-68
2021/04/23 01:36:39;;;;;;;6.63;2.60;;;;;;;;;;5059977;28;20048;-68
2021/04/23 01:39:09;;;;;;;7.03;2.88;;;;;;;;;;5072304;28;20480;-68
2021/04/23 01:41:35;;;;;;;7.50;3.25;;;;;;;;;;5073211;28;20055;-68
2021/04/23 01:44:02;;;;;;;5.90;2.88;;;;;;;;;;5075198;28;20105;-68
2021/04/23 01:46:28;;;;;;;5.38;2.80;;;;;;;;;;5082842;28;20135;-68
2021/04/23 01:48:54;;;;;;;7.00;3.05;;;;;;;;;;5072369;28;20056;-69
2021/04/23 01:51:20;;;;;;;9.45;2.92;;;;;;;;;;5073000;28;20056;-69
2021/04/23 01:53:46;;;;;;;10.32;3.22;;;;;;;;;;5073016;28;20432;-68
2021/04/23 01:56:15;;;;;;;7.18;2.65;;;;;;;;;;5071689;28;20052;-68
2021/04/23 01:58:41;;;;;;;6.32;2.85;;;;;;;;;;5072247;28;20098;-68
2021/04/23 02:01:08;;;;;;;5.97;2.47;;;;;;;;;;5072940;28;20044;-68
2021/04/23 02:03:35;;;;;;;9.75;3.42;;;;;;;;;;5072122;28;20478;-68
2021/04/23 02:06:01;;;;;;;7.95;2.90;;;;;;;;;;5071851;28;20050;-68
2021/04/23 02:08:27;;;;;;;12.07;3.55;;;;;;;;;;5071022;28;20049;-68
2021/04/23 02:10:57;;;;;;;7.28;3.15;;;;;;;;;;5072571;28;20051;-68
2021/04/23 02:13:26;;;;;;;8.35;3.03;;;;;;;;;;5072610;28;20048;-68
2021/04/23 02:15:52;;;;;;;6.55;2.70;;;;;;;;;;5072235;28;20040;-68
2021/04/23 02:18:19;;;;;;;8.10;2.90;;;;;;;;;;5072151;28;20052;-68
2021/04/23 02:20:45;;;;;;;7.75;2.63;;;;;;;;;;5072544;28;20417;-68
2021/04/23 02:23:13;;;;;;;7.18;3.08;;;;;;;;;;5072138;28;20051;-68
2021/04/23 02:25:39;;;;;;;6.70;2.60;;;;;;;;;;5072135;28;20055;-68
2021/04/23 02:28:08;;;;;;;7.20;3.03;;;;;;;;;;5071774;28;20485;-68
2021/04/23 02:30:38;;;;;;;7.15;3.05;;;;;;;;;;5072092;28;20053;-68
2021/04/23 02:33:05;;;;;;;7.75;3.20;;;;;;;;;;5072363;28;20040;-68
2021/04/23 02:35:32;;;;;;;7.00;2.85;;;;;;;;;;5071697;28;20052;-68
2021/04/23 02:37:58;;;;;;;6.60;2.80;;;;;;;;;;5071978;28;20443;-68
2021/04/23 02:40:25;;;;;;;5.20;2.60;;;;;;;;;;5072053;28;20454;-68
2021/04/23 02:42:54;;;;;;;8.80;3.03;;;;;;;;;;5072279;28;20048;-68
2021/04/23 02:45:22;;;;;;;6.90;3.20;;;;;;;;;;5075829;28;20060;-68
2021/04/23 02:47:49;;;;;;;9.18;3.25;;;;;;;;;;5074539;28;20044;-68
2021/04/23 02:50:19;;;;;;;8.93;2.80;;;;;;;;;;5071360;28;20117;-68
2021/04/23 02:52:45;;;;;;;4.78;2.65;;;;;;;;;;5071946;28;20056;-68
2021/04/23 02:55:14;;;;;;;8.93;2.58;;;;;;;;;;5071281;28;20378;-68
2021/04/23 02:57:40;;;;;;;7.28;3.08;;;;;;;;;;5071028;28;20070;-68
2021/04/23 03:00:10;;;;;;;11.70;2.53;;;;;;;;;;5072294;28;20052;-68
2021/04/23 03:02:36;;;;;;;9.35;3.22;;;;;;;;;;5071570;28;20067;-68
2021/04/23 03:05:03;;;;;;;9.77;3.20;;;;;;;;;;5071938;28;20048;-68
2021/04/23 03:07:29;;;;;;;9.02;3.22;;;;;;;;;;5070815;28;20444;-68
2021/04/23 03:09:55;;;;;;;11.15;3.63;;;;;;;;;;5072196;28;20088;-68
2021/04/23 03:12:21;;;;;;;9.75;3.30;;;;;;;;;;5071355;28;20538;-68
2021/04/23 03:14:47;;;;;;;7.70;3.22;;;;;;;;;;5071375;28;20044;-68
2021/04/23 03:17:13;;;;;;;8.02;3.05;;;;;;;;;;5071153;28;20142;-68
2021/04/23 03:19:39;;;;;;;8.98;3.20;;;;;;;;;;5072128;28;20052;-68
2021/04/23 03:22:06;;;;;;;7.82;2.80;;;;;;;;;;5071661;28;20053;-68
2021/04/23 03:24:32;;;;;;;8.02;3.10;;;;;;;;;;5071381;28;20408;-68
2021/04/23 03:26:58;;;;;;;8.32;2.85;;;;;;;;;;5070724;28;20078;-68
2021/04/23 03:29:24;;;;;;;8.93;3.15;;;;;;;;;;5071933;28;20052;-68
2021/04/23 03:31:50;;;;;;;9.10;3.55;;;;;;;;;;5071816;28;20496;-68
2021/04/23 03:34:17;;;;;;;8.63;2.50;;;;;;;;;;5071599;28;20535;-68
2021/04/23 03:36:43;;;;;;;10.48;2.92;;;;;;;;;;5070676;28;20048;-68
2021/04/23 03:39:11;;;;;;;6.13;2.80;;;;;;;;;;5071532;28;20102;-68
2021/04/23 03:41:38;;;;;;;8.25;2.92;;;;;;;;;;5071444;28;20045;-68
2021/04/23 03:44:05;;;;;;;7.95;2.95;;;;;;;;;;5071622;28;20044;-68
2021/04/23 03:46:31;;;;;;;8.75;3.08;;;;;;;;;;5076592;28;20051;-68
2021/04/23 03:48:57;;;;;;;6.18;3.20;;;;;;;;;;5071108;28;20044;-68
2021/04/23 03:51:24;;;;;;;5.78;2.83;;;;;;;;;;5071039;28;20052;-68
2021/04/23 03:53:50;;;;;;;7.50;3.30;;;;;;;;;;5070335;28;20040;-69
2021/04/23 03:56:18;;;;;;;7.97;3.38;;;;;;;;;;5071527;28;20531;-68
2021/04/23 03:58:45;;;;;;;5.82;3.00;;;;;;;;;;5070838;28;20465;-69
2021/04/23 04:01:14;;;;;;;7.25;2.70;;;;;;;;;;5074064;28;20056;-68
2021/04/23 04:03:41;;;;;;;8.82;2.92;;;;;;;;;;5078230;28;20036;-68
2021/04/23 04:06:07;;;;;;;9.68;2.80;;;;;;;;;;5081879;28;20048;-68
2021/04/23 04:08:34;;;;;;;8.30;3.20;;;;;;;;;;5076620;28;20049;-68
2021/04/23 04:11:01;;;;;;;9.77;3.47;;;;;;;;;;5083803;28;20068;-68
2021/04/23 04:13:28;;;;;;;9.05;3.58;;;;;;;;;;5077084;28;20051;-68
2021/04/23 04:15:54;;;;;;;8.75;3.40;;;;;;;;;;5074114;28;20056;-68
2021/04/23 04:18:21;;;;;;;6.35;3.20;;;;;;;;;;5073637;28;20148;-68
2021/04/23 04:20:48;;;;;;;6.53;2.95;;;;;;;;;;5073428;28;20090;-69
2021/04/23 04:23:17;;;;;;;7.50;4.00;;;;;;;;;;5073125;28;20450;-68
2021/04/23 04:25:45;;;;;;;18.23;4.22;;;;;;;;;;5073033;28;20592;-68
2021/04/23 04:28:11;;;;;;;8.75;3.67;;;;;;;;;;5071953;28;20076;-68
2021/04/23 04:30:39;;;;;;;8.07;2.72;;;;;;;;;;5073448;28;20040;-68
2021/04/23 04:33:06;;;;;;;8.00;3.50;;;;;;;;;;5070809;28;20421;-68
2021/04/23 04:35:33;;;;;;;9.90;3.47;;;;;;;;;;5073011;28;20044;-68
2021/04/23 04:38:00;;;;;;;7.85;3.17;;;;;;;;;;5072819;28;20055;-68
2021/04/23 04:40:28;;;;;;;6.50;3.22;;;;;;;;;;5070029;28;20180;-68
2021/04/23 04:42:55;;;;;;;8.55;3.72;;;;;;;;;;5073144;28;20478;-68
2021/04/23 04:45:26;;;;;;;6.68;3.40;;;;;;;;;;5074106;28;20058;-68
2021/04/23 04:47:53;;;;;;;11.75;3.88;;;;;;;;;;5078049;28;20497;-68
2021/04/23 04:50:21;;;;;;;7.40;3.05;;;;;;;;;;5078911;28;20048;-67
2021/04/23 04:52:47;;;;;;;8.70;3.05;;;;;;;;;;5069041;28;20480;-68
2021/04/23 04:55:15;;;;;;;8.38;3.70;;;;;;;;;;5073921;28;20049;-68
2021/04/23 04:57:41;;;;;;;8.05;3.20;;;;;;;;;;5071883;28;20048;-68
2021/04/23 05:00:09;;;;;;;7.13;3.20;;;;;;;;;;5072973;28;20443;-68
2021/04/23 05:02:35;;;;;;;7.53;3.05;;;;;;;;;;5071024;28;20058;-68
2021/04/23 05:05:03;;;;;;;5.90;3.30;;;;;;;;;;5071303;28;20562;-68
2021/04/23 05:07:29;;;;;;;32.58;4.53;;;;;;;;;;5072162;28;20052;-68
2021/04/23 05:09:55;;;;;;;8.00;3.53;;;;;;;;;;5072982;28;20472;-68
2021/04/23 05:12:21;;;;;;;10.77;3.72;;;;;;;;;;5073929;28;20159;-68
2021/04/23 05:14:47;;;;;;;8.82;3.33;;;;;;;;;;5073146;28;20052;-68
2021/04/23 05:17:13;;;;;;;6.82;3.22;;;;;;;;;;5073059;28;20132;-68
2021/04/23 05:19:39;;;;;;;6.32;3.70;;;;;;;;;;5073495;28;20052;-68
2021/04/23 05:22:05;;;;;;;10.38;3.35;;;;;;;;;;5072994;28;20061;-68
2021/04/23 05:24:31;;;;;;;5.53;3.13;;;;;;;;;;5073432;28;20158;-68
2021/04/23 05:26:58;;;;;;;8.43;3.97;;;;;;;;;;5071467;28;20053;-68
2021/04/23 05:29:24;;;;;;;6.13;3.05;;;;;;;;;;5072827;28;20449;-68
2021/04/23 05:31:49;;;;;;;7.80;3.50;;;;;;;;;;5073445;28;20048;-68
2021/04/23 05:34:16;;;;;;;7.28;3.15;;;;;;;;;;5070928;28;20090;-69
2021/04/23 05:36:45;;;;;;;8.88;3.30;;;;;;;;;;5073697;28;20044;-70
2021/04/23 05:39:12;;;;;;;7.32;3.00;;;;;;;;;;5072364;28;20044;-68
2021/04/23 05:41:38;;;;;;;10.95;3.40;;;;;;;;;;5073041;28;20053;-69
2021/04/23 05:44:08;;;;;;;10.90;3.75;;;;;;;;;;5072191;28;20040;-69
2021/04/23 05:46:34;;;;;;;11.30;4.38;;;;;;;;;;5071815;28;20052;-69
2021/04/23 05:49:00;;;;;;;9.55;4.47;;;;;;;;;;5076344;28;20048;-69
2021/04/23 05:51:26;;;;;;;12.07;4.80;;;;;;;;;;5080864;28;20044;-69
2021/04/23 05:53:52;;;;;;;10.15;4.00;;;;;;;;;;5073056;28;20048;-69
2021/04/23 05:56:19;;;;;;;7.63;4.18;;;;;;;;;;5072950;28;20194;-69
2021/04/23 05:58:45;;;;;;;17.10;3.88;;;;;;;;;;5072541;28;20049;-69
2021/04/23 06:01:11;;;;;;;9.38;3.58;;;;;;;;;;5072805;28;20075;-70
2021/04/23 06:03:37;;;;;;;6.95;3.17;;;;;;;;;;5071890;28;20477;-70
2021/04/23 06:06:03;;;;;;;11.63;4.85;;;;;;;;;;5071913;28;20055;-70
2021/04/23 06:08:29;;;;;;;11.27;3.60;;;;;;;;;;5071468;28;20052;-68
2021/04/23 06:10:55;;;;;;;14.90;5.03;;;;;;;;;;5071560;28;20102;-69
2021/04/23 06:13:22;;;;;;;8.75;4.28;;;;;;;;;;5071792;28;20048;-70
2021/04/23 06:15:48;;;;;;;12.35;4.55;;;;;;;;;;5071058;28;20105;-69
2021/04/23 06:18:14;;;;;;;12.63;5.18;;;;;;;;;;5071519;28;20095;-70
2021/04/23 06:20:42;;;;;;;13.38;4.78;;;;;;;;;;5071563;28;20058;-70
2021/04/23 06:23:09;;;;;;;27.65;5.82;;;;;;;;;;5071889;28;20469;-69
2021/04/23 06:25:35;;;;;;;15.93;5.82;;;;;;;;;;5071558;28;20059;-68
2021/04/23 06:28:02;;;;;;;11.48;4.40;;;;;;;;;;5071419;28;20048;-69
2021/04/23 06:30:30;;;;;;;13.27;5.03;;;;;;;;;;5071346;28;20060;-69
2021/04/23 06:32:58;;;;;;;10.95;4.40;;;;;;;;;;5072148;28;20051;-70
2021/04/23 06:35:26;;;;;;;13.13;6.13;;;;;;;;;;5071862;28;20397;-69
2021/04/23 06:37:53;;;;;;;12.75;6.00;;;;;;;;;;5069101;28;20044;-70
2021/04/23 06:40:19;;;;;;;14.15;5.45;;;;;;;;;;5072094;28;20048;-68
2021/04/23 06:42:46;;;;;;;13.98;5.93;;;;;;;;;;5071333;28;20053;-69
2021/04/23 06:45:14;;;;;;;13.60;5.47;;;;;;;;;;5068769;28;20048;-69
2021/04/23 06:47:42;;;;;;;17.27;5.15;;;;;;;;;;5071888;28;20048;-69
2021/04/23 06:50:09;;;;;;;14.60;6.25;;;;;;;;;;5079868;28;20685;-69
2021/04/23 06:52:35;;;;;;;13.98;6.03;;;;;;;;;;5079320;28;20051;-69
2021/04/23 06:55:01;;;;;;;15.38;5.35;;;;;;;;;;5071686;28;20509;-69
2021/04/23 06:57:27;;;;;;;9.57;5.32;;;;;;;;;;5071808;28;20056;-70
2021/04/23 06:59:53;;;;;;;10.98;5.40;;;;;;;;;;5071519;28;20057;-70
2021/04/23 07:02:20;;;;;;;12.63;5.28;;;;;;;;;;5071381;28;20072;-67
2021/04/23 07:04:46;;;;;;;12.25;5.30;;;;;;;;;;5071179;28;20044;-67
2021/04/23 07:07:12;;;;;;;12.13;5.15;;;;;;;;;;5070362;28;20061;-67
2021/04/23 07:09:38;;;;;;;16.17;6.22;;;;;;;;;;5071027;28;20051;-68
2021/04/23 07:12:05;;;;;;;10.43;5.18;;;;;;;;;;5072155;28;20083;-68
2021/04/23 07:14:31;;;;;;;12.38;5.38;;;;;;;;;;5071594;28;20511;-69
2021/04/23 07:16:56;;;;;;;13.20;4.97;;;;;;;;;;5070796;28;20056;-71
2021/04/23 07:19:22;;;;;;;9.65;5.32;;;;;;;;;;5071125;28;20052;-69
2021/04/23 07:21:49;;;;;;;10.90;4.85;;;;;;;;;;5051967;28;20136;-70
2021/04/23 07:24:15;;;;;;;11.43;5.22;;;;;;;;;;5061191;28;20048;-68
2021/04/23 07:26:41;;;;;;;13.50;5.30;;;;;;;;;;5070096;28;20099;-68
2021/04/23 07:29:07;;;;;;;9.73;4.68;;;;;;;;;;5070452;28;20090;-69
2021/04/23 07:31:33;;;;;;;10.65;4.28;;;;;;;;;;5070907;28;20041;-69
2021/04/23 07:34:00;;;;;;;8.45;4.57;;;;;;;;;;5070853;28;20045;-70
2021/04/23 07:36:26;;;;;;;14.65;5.15;;;;;;;;;;5071287;28;20094;-69
2021/04/23 07:38:53;;;;;;;12.20;4.72;;;;;;;;;;5071285;28;20443;-68
2021/04/23 07:41:19;;;;;;;12.68;4.90;;;;;;;;;;5070383;28;20045;-68
2021/04/23 07:43:45;;;;;;;13.20;5.22;;;;;;;;;;5070500;28;20056;-68
2021/04/23 07:46:11;;;;;;;13.82;5.65;;;;;;;;;;5074592;28;20052;-70
2021/04/23 07:48:37;;;;;;;10.32;4.50;;;;;;;;;;5075044;28;20051;-67
2021/04/23 07:51:05;;;;;;;11.27;5.25;;;;;;;;;;5079480;28;20424;-68
2021/04/23 07:53:31;;;;;;;14.32;4.85;;;;;;;;;;5082455;28;20047;-68
2021/04/23 07:55:57;;;;;;;9.40;5.15;;;;;;;;;;5074951;28;20412;-69
2021/04/23 07:58:23;;;;;;;12.93;5.22;;;;;;;;;;5075084;28;20101;-69
2021/04/23 08:00:49;;;;;;;10.18;4.68;;;;;;;;;;5078301;28;20044;-68
2021/04/23 08:03:15;;;;;;;12.38;4.72;;;;;;;;;;5075016;28;20126;-68
2021/04/23 08:05:42;;;;;;;10.75;4.47;;;;;;;;;;5074958;28;20068;-68
2021/04/23 08:08:08;;;;;;;9.65;4.53;;;;;;;;;;5074103;28;20125;-68
2021/04/23 08:10:35;;;;;;;12.35;4.55;;;;;;;;;;5075409;28;20048;-71
2021/04/23 08:13:02;;;;;;;9.07;4.38;;;;;;;;;;5074809;28;20135;-69
2021/04/23 08:15:29;;;;;;;12.25;5.43;;;;;;;;;;5074652;28;20109;-70
2021/04/23 08:17:55;;;;;;;11.95;4.35;;;;;;;;;;5074454;28;20533;-69
2021/04/23 08:20:21;;;;;;;12.25;4.60;;;;;;;;;;5074581;28;20048;-69
2021/04/23 08:22:47;;;;;;;11.45;3.83;;;;;;;;;;5074925;28;20397;-69
2021/04/23 08:25:16;;;;;;;9.10;3.60;;;;;;;;;;5074702;28;20056;-69
2021/04/23 08:27:42;;;;;;;9.10;4.10;;;;;;;;;;5074441;28;20060;-69
2021/04/23 08:30:10;;;;;;;9.45;3.92;;;;;;;;;;5074746;28;20048;-69
2021/04/23 08:32:37;;;;;;;7.05;3.50;;;;;;;;;;5074801;28;20048;-69
2021/04/23 08:35:03;;;;;;;11.75;4.30;;;;;;;;;;5074348;28;20045;-68
2021/04/23 08:37:29;;;;;;;10.15;4.47;;;;;;;;;;5073676;28;20071;-68
2021/04/23 08:39:55;;;;;;;9.77;3.97;;;;;;;;;;5074105;28;20053;-68
2021/04/23 08:42:22;;;;;;;11.13;4.07;;;;;;;;;;5074479;28;20076;-68
2021/04/23 08:44:48;;;;;;;10.93;3.60;;;;;;;;;;5073728;28;20060;-69
2021/04/23 08:47:16;;;;;;;8.23;3.70;;;;;;;;;;5073990;28;20048;-68
2021/04/23 08:49:42;;;;;;;11.60;4.70;;;;;;;;;;5074469;28;20401;-67
2021/04/23 08:52:08;;;;;;;11.15;4.70;;;;;;;;;;5080043;28;20063;-68
2021/04/23 08:54:35;;;;;;;7.55;3.63;;;;;;;;;;5081019;28;20051;-69
2021/04/23 08:57:01;;;;;;;10.43;3.58;;;;;;;;;;5073663;28;20173;-73
2021/04/23 08:59:27;;;;;;;7.38;3.60;;;;;;;;;;5071857;28;20505;-70
2021/04/23 09:01:53;;;;;;;9.82;3.83;;;;;;;;;;5073851;28;20044;-68
2021/04/23 09:04:20;;;;;;;7.75;4.43;;;;;;;;;;5073827;28;20362;-68
2021/04/23 09:06:59;;;;;;;8.73;3.55;;;;;;;;;;5073261;28;20102;-68
2021/04/23 09:09:33;;;;;;;9.57;4.22;;;;;;;;;;5073680;28;20501;-71
2021/04/23 09:11:59;;;;;;;8.65;3.72;;;;;;;;;;5073889;28;20088;-70
2021/04/23 09:14:26;;;;;;;7.55;4.43;;;;;;;;;;5074253;28;20060;-70
2021/04/23 09:16:54;;;;;;;10.88;4.10;;;;;;;;;;5073431;28;20045;-71
2021/04/23 09:19:24;;;;;;;8.35;4.10;;;;;;;;;;5073131;28;20123;-67
2021/04/23 09:21:52;;;;;;;8.55;4.03;;;;;;;;;;5074188;28;20132;-69
2021/04/23 09:24:26;;;;;;;10.75;4.07;;;;;;;;;;5073512;28;20055;-68
2021/04/23 09:26:53;;;;;;;10.02;4.07;;;;;;;;;;5073516;28;20060;-69
2021/04/23 09:29:25;;;;;;;9.65;4.10;;;;;;;;;;5073505;28;20122;-69
2021/04/23 09:31:51;;;;;;;11.52;3.67;;;;;;;;;;5073463;28;20059;-70
2021/04/23 09:34:17;;;;;;;10.75;3.70;;;;;;;;;;5073439;28;20063;-70
2021/04/23 09:36:46;;;;;;;10.05;4.13;;;;;;;;;;5073181;28;20122;-70
2021/04/23 09:39:13;;;;;;;9.68;4.47;;;;;;;;;;5073424;28;20136;-69
2021/04/23 09:41:41;;;;;;;10.68;3.90;;;;;;;;;;5073159;28;20048;-70
2021/04/23 09:44:25;;;;;;;10.45;4.63;;;;;;;;;;5073267;28;20092;-71
2021/04/23 09:47:00;;;;;;;8.00;3.55;;;;;;;;;;5073025;28;20079;-70
2021/04/23 09:49:26;;;;;;;10.05;5.00;;;;;;;;;;5053066;28;20049;-69
2021/04/23 09:51:53;;;;;;;10.73;3.80;;;;;;;;;;5060279;28;20044;-69
2021/04/23 09:54:21;;;;;;;9.27;4.10;;;;;;;;;;5085102;28;20051;-69
2021/04/23 09:56:47;;;;;;;11.30;3.97;;;;;;;;;;5072432;28;20105;-70
2021/04/23 09:59:15;;;;;;;10.07;3.92;;;;;;;;;;5072727;28;20052;-69
2021/04/23 10:01:51;;;;;;;13.82;4.55;;;;;;;;;;5073285;28;20694;-71
2021/04/23 10:04:22;;;;;;;8.80;4.05;;;;;;;;;;5072545;28;20060;-70
2021/04/23 10:06:48;;;;;;;9.80;4.50;;;;;;;;;;5071660;28;20064;-68
2021/04/23 10:09:15;;;;;;;10.82;4.15;;;;;;;;;;5072822;28;20078;-69
2021/04/23 10:11:42;;;;;;;11.02;4.10;;;;;;;;;;5072786;28;20055;-68
2021/04/23 10:14:10;;;;;;;7.60;3.45;;;;;;;;;;5072751;28;20048;-68
2021/04/23 10:16:39;;;;;;;10.23;3.65;;;;;;;;;;5077982;28;20067;-72
2021/04/23 10:19:05;;;;;;;7.20;3.70;;;;;;;;;;5080822;28;20055;-69
2021/04/23 10:21:31;;;;;;;7.57;4.40;;;;;;;;;;5082332;28;20048;-69
2021/04/23 10:23:58;;;;;;;9.27;4.20;;;;;;;;;;5081421;28;20400;-71
2021/04/23 10:26:26;;;;;;;12.85;4.40;;;;;;;;;;5078606;28;20049;-72
2021/04/23 10:28:53;;;;;;;8.30;3.85;;;;;;;;;;5078685;28;20490;-69
2021/04/23 10:31:20;;;;;;;9.50;3.78;;;;;;;;;;5083264;28;20060;-72
2021/04/23 10:33:46;;;;;;;8.68;4.22;;;;;;;;;;5080760;28;20044;-71
2021/04/23 10:36:12;;;;;;;9.75;4.00;;;;;;;;;;5083260;28;20477;-71
2021/04/23 10:38:40;;;;;;;9.40;4.45;;;;;;;;;;5079987;28;20113;-69
2021/04/23 10:41:10;;;;;;;7.10;3.60;;;;;;;;;;5079830;28;20070;-71
2021/04/23 10:43:49;;;;;;;5.93;3.92;;;;;;;;;;5081083;28;20412;-68
2021/04/23 10:46:17;;;;;;;15.80;4.50;;;;;;;;;;5081077;28;20484;-69
2021/04/23 10:48:44;;;;;;;6.93;4.70;;;;;;;;;;5080776;28;20076;-70
2021/04/23 10:51:25;;;;;;;8.10;3.92;;;;;;;;;;5083590;28;20087;-70
2021/04/23 10:53:53;;;;;;;9.15;4.43;;;;;;;;;;5082238;28;20168;-69
2021/04/23 10:56:28;;;;;;;11.45;4.88;;;;;;;;;;5079725;28;20443;-69
2021/04/23 10:58:57;;;;;;;10.07;3.67;;;;;;;;;;5070374;28;20049;-68
2021/04/23 11:01:25;;;;;;;8.73;3.60;;;;;;;;;;5071852;28;20055;-69
2021/04/23 11:04:04;;;;;;;10.48;3.92;;;;;;;;;;5072167;28;20052;-69
2021/04/23 11:06:32;;;;;;;9.73;3.92;;;;;;;;;;5071821;28;20094;-69
2021/04/23 11:09:08;;;;;;;8.18;4.35;;;;;;;;;;5071670;28;20049;-69
2021/04/23 11:11:35;;;;;;;12.68;5.18;;;;;;;;;;5072092;28;20052;-68
2021/04/23 11:14:23;;;;;;;7.13;3.55;;;;;;;;;;5071571;28;20583;-68
2021/04/23 11:16:49;;;;;;;9.65;4.50;;;;;;;;;;5071194;28;20485;-68
2021/04/23 11:19:37;;;;;;;9.45;4.43;;;;;;;;;;5072262;28;20048;-68
2021/04/23 11:22:14;;;;;;;7.45;4.00;;;;;;;;;;5075705;28;20060;-69
2021/04/23 11:25:00;;;;;;;9.55;4.20;;;;;;;;;;5075240;28;20128;-69
2021/04/23 11:27:26;;;;;;;;;;;;;;;;;;5076034;28;20049;-68
2021/04/23 11:30:08;;;;;;;12.82;4.35;;;;;;;;;;5075928;28;19920;-69
2021/04/23 11:32:34;;;;;;;9.73;4.20;;;;;;;;;;5075660;28;20139;-69
2021/04/23 11:35:17;;;;;;;8.23;4.22;;;;;;;;;;5078211;28;20055;-69
2021/04/23 11:37:49;;;;;;;7.88;3.42;;;;;;;;;;5081699;28;20047;-70
2021/04/23 11:40:17;;;;;;;8.40;4.38;;;;;;;;;;5079060;28;20538;-69
2021/04/23 11:42:44;;;;;;;10.98;4.60;;;;;;;;;;5081628;28;20044;-68
2021/04/23 11:45:14;;;;;;;8.60;4.03;;;;;;;;;;5073469;28;20036;-69
2021/04/23 11:47:41;;;;;;;9.30;3.97;;;;;;;;;;5074798;28;20095;-70
2021/04/23 11:50:27;;;;;;;9.57;3.92;;;;;;;;;;5074418;28;20056;-71
2021/04/23 11:52:54;;;;;;;10.02;4.50;;;;;;;;;;5071812;28;20041;-70
2021/04/23 11:55:21;;;;;;;10.77;5.13;;;;;;;;;;5078227;28;20047;-70
2021/04/23 11:57:53;;;;;;;10.65;4.60;;;;;;;;;;5073010;28;20485;-69
2021/04/23 12:00:22;;;;;;;20.08;5.60;;;;;;;;;;5073916;28;20049;-70
2021/04/23 12:02:55;;;;;;;9.52;4.50;;;;;;;;;;5072885;28;20064;-68
2021/04/23 12:05:24;;;;;;;8.52;4.15;;;;;;;;;;5073041;28;20101;-68
2021/04/23 12:07:52;;;;;;;7.28;3.90;;;;;;;;;;5072644;28;20048;-68
2021/04/23 12:10:19;;;;;;;6.25;3.45;;;;;;;;;;5073289;28;20048;-68
2021/04/23 12:12:46;;;;;;;8.45;4.32;;;;;;;;;;5073933;28;20359;-68
2021/04/23 12:15:28;;;;;;;9.95;4.43;;;;;;;;;;5073383;28;20041;-68
2021/04/23 12:17:54;;;;;;;9.85;4.82;;;;;;;;;;5070700;28;20040;-69
2021/04/23 12:20:23;;;;;;;9.88;4.55;;;;;;;;;;5074427;28;20606;-68
2021/04/23 12:22:50;;;;;;;11.75;4.38;;;;;;;;;;5074174;28;20079;-68
2021/04/23 12:25:38;;;;;;;7.32;3.72;;;;;;;;;;5074069;28;20037;-68
2021/04/23 12:28:33;;;;;;;9.90;5.38;;;;;;;;;;5067546;28;20136;-68
2021/04/23 12:31:05;;;;;;;9.38;5.07;;;;;;;;;;5071569;28;20102;-70
2021/04/23 12:33:44;;;;;;;8.07;4.30;;;;;;;;;;5074598;28;20036;-70
2021/04/23 12:36:15;;;;;;;9.63;4.55;;;;;;;;;;5073874;28;20481;-70
2021/04/23 12:38:42;;;;;;;10.15;4.80;;;;;;;;;;5070167;28;20052;-70
2021/04/23 12:41:24;;;;;;;7.57;4.07;;;;;;;;;;5073013;28;20542;-69
2021/04/23 12:43:51;;;;;;;8.25;4.78;;;;;;;;;;5073672;28;20162;-71
2021/04/23 12:46:27;;;;;;;10.65;5.15;;;;;;;;;;5072959;28;20098;-68
2021/04/23 12:48:55;;;;;;;17.73;5.93;;;;;;;;;;5071880;28;20048;-71
2021/04/23 12:51:22;;;;;;;8.68;4.63;;;;;;;;;;5072795;28;20078;-72
2021/04/23 12:53:49;;;;;;;9.05;4.35;;;;;;;;;;5072264;28;20047;-73
2021/04/23 12:56:15;;;;;;;9.82;4.35;;;;;;;;;;5070925;28;20060;-72
2021/04/23 12:58:41;;;;;;;12.52;4.88;;;;;;;;;;5072126;28;20049;-69
2021/04/23 13:01:07;;;;;;;7.72;4.00;;;;;;;;;;5072662;28;20443;-68
2021/04/23 13:03:34;;;;;;;7.40;4.20;;;;;;;;;;5072634;28;20044;-68
2021/04/23 13:06:00;;;;;;;8.20;4.18;;;;;;;;;;5082862;28;20053;-69
2021/04/23 13:08:28;;;;;;;8.52;4.15;;;;;;;;;;5073718;28;20048;-68
2021/04/23 13:10:56;;;;;;;7.40;4.50;;;;;;;;;;5071790;28;20098;-70
2021/04/23 13:13:22;;;;;;;11.40;4.32;;;;;;;;;;5071906;28;20049;-68
2021/04/23 13:15:50;;;;;;;10.30;4.25;;;;;;;;;;5072414;28;20094;-67
2021/04/23 13:18:18;;;;;;;6.53;4.28;;;;;;;;;;5071495;28;20048;-68
2021/04/23 13:20:51;;;;;;;7.97;4.55;;;;;;;;;;5071008;28;20052;-69
2021/04/23 13:23:29;;;;;;;9.20;4.18;;;;;;;;;;5070578;28;20080;-69
2021/04/23 13:25:55;;;;;;;7.10;4.15;;;;;;;;;;5069529;28;20063;-70
2021/04/23 13:28:21;;;;;;;6.50;4.05;;;;;;;;;;5069318;28;20049;-69
2021/04/23 13:30:53;;;;;;;7.97;4.50;;;;;;;;;;5071726;28;20083;-69
2021/04/23 13:33:25;;;;;;;10.23;4.95;;;;;;;;;;5071312;28;20048;-69
2021/04/23 13:35:53;;;;;;;8.75;4.57;;;;;;;;;;5067913;28;20052;-69
2021/04/23 13:38:29;;;;;;;6.82;3.80;;;;;;;;;;5071505;28;20052;-69
2021/04/23 13:40:56;;;;;;;;;;;;;;;;;;5078279;28;20645;-69
2021/04/23 13:43:24;;;;;;;8.63;4.25;;;;;;;;;;5079526;28;19945;-69
2021/04/23 13:45:58;;;;;;;7.20;3.63;;;;;;;;;;5080097;28;20056;-69
2021/04/23 13:48:27;;;;;;;8.00;3.70;;;;;;;;;;5080737;28;20040;-69
2021/04/23 13:50:55;;;;;;;7.32;3.53;;;;;;;;;;5084582;28;20053;-69
2021/04/23 13:53:21;;;;;;;6.82;3.90;;;;;;;;;;5082725;28;20043;-69
2021/04/23 13:56:07;;;;;;;9.10;4.03;;;;;;;;;;5083422;28;20048;-69
2021/04/23 13:58:59;;;;;;;5.95;3.40;;;;;;;;;;5075127;28;20505;-69
2021/04/23 14:01:31;;;;;;;7.45;3.67;;;;;;;;;;5068519;28;20055;-69
2021/04/23 14:03:58;;;;;;;8.05;3.75;;;;;;;;;;5070278;28;20429;-69
2021/04/23 14:06:25;;;;;;;8.27;3.20;;;;;;;;;;5079200;28;20525;-68
2021/04/23 14:08:52;;;;;;;8.02;4.07;;;;;;;;;;5073334;28;20052;-69
2021/04/23 14:11:18;;;;;;;6.47;3.72;;;;;;;;;;5071225;28;20143;-68
2021/04/23 14:13:52;;;;;;;8.27;3.88;;;;;;;;;;5076789;28;20135;-70
2021/04/23 14:16:18;;;;;;;7.35;3.78;;;;;;;;;;5076282;28;20047;-69
2021/04/23 14:18:44;;;;;;;15.25;4.63;;;;;;;;;;5074540;28;20048;-68
2021/04/23 14:21:10;;;;;;;10.25;3.80;;;;;;;;;;5077164;28;20048;-74
2021/04/23 14:23:37;;;;;;;9.85;3.80;;;;;;;;;;5080841;28;20075;-68
2021/04/23 14:26:03;;;;;;;6.43;3.42;;;;;;;;;;5080434;28;20059;-71
2021/04/23 14:28:32;;;;;;;8.45;4.07;;;;;;;;;;5080412;28;20048;-69
2021/04/23 14:30:58;;;;;;;10.18;3.80;;;;;;;;;;5081705;28;20048;-68
2021/04/23 14:33:24;;;;;;;7.88;3.80;;;;;;;;;;5080333;28;20056;-69
2021/04/23 14:35:50;;;;;;;7.25;3.53;;;;;;;;;;5069438;28;20461;-69
2021/04/23 14:38:15;;;;;;;7.40;3.40;;;;;;;;;;5077503;28;20048;-69
2021/04/23 14:40:42;;;;;;;8.98;3.97;;;;;;;;;;5080035;28;20048;-69
2021/04/23 14:43:08;;;;;;;8.00;3.47;;;;;;;;;;5082205;28;20078;-69